Latest Weather Observations for Low Head

IDT60801

Issued at 10:01 am EST Monday 19 April 2021 (issued every 10 minutes, with the page automatically refreshed every 10 minutes)

About weather observations | Map of weather stations | Latest weather observations for TAS | Other Formats
Station Details ID: 091293 Name: LOW HEAD Lat: -41.05 Lon: 146.79 Height: 3.0 m
Data from the previous 72 hours. | See also: Recent months at Low Head
Date/Time
EST
Temp
°C
App
Temp
°C
Dew
Point
°C
Rel
Hum
%
Delta-T
°C
Wind Press
QNH
hPa
Press
MSL
hPa
Rain since
9am
mm
Dir  Spd
km/h
Gust
km/h
Spd
kts
Gust
kts
19/10:00am 14.8 8.7 11.9 83 1.6 WNW 35 44 19 24 1012.6 1012.6 0.0
19/09:30am 14.3 8.8 12.0 86 1.2 WNW 32 39 17 21 1012.8 1012.8 0.0
19/09:00am 15.1 9.4 11.1 77 2.1 WNW 32 43 17 23 1012.8 1012.8 0.0
19/08:30am 15.0 9.6 10.8 76 2.2 W 30 37 16 20 1012.8 1012.8 0.0
19/08:00am 15.0 9.5 10.4 74 2.4 W 30 35 16 19 1012.7 1012.7 0.0
19/07:30am 14.9 9.0 10.3 74 2.4 W 32 39 17 21 1012.6 1012.6 0.0
19/07:00am 14.3 8.2 10.3 77 2.1 W 33 39 18 21 1012.8 1012.8 0.0
19/06:30am 14.5 8.2 10.9 79 1.9 W 35 46 19 25 1012.8 1012.8 0.0
19/06:00am 14.4 7.6 10.8 79 1.9 W 37 43 20 23 1012.8 1012.8 0.0
19/05:30am 14.6 8.3 11.0 79 1.9 W 35 43 19 23 1012.8 1012.8 0.0
19/05:00am 14.6 8.3 11.0 79 1.9 W 35 43 19 23 1012.7 1012.7 0.0
19/04:30am 14.2 8.0 11.5 84 1.4 W 35 41 19 22 1012.8 1012.8 0.0
19/04:00am 14.3 8.3 12.0 86 1.2 W 35 43 19 23 1012.9 1012.9 0.0
19/03:30am 14.1 7.7 12.1 88 1.1 W 37 43 20 23 1013.1 1013.1 0.0
19/03:00am 14.1 8.0 11.8 86 1.2 W 35 43 19 23 1013.3 1013.3 0.0
19/02:30am 14.3 7.8 11.8 85 1.3 WNW 37 44 20 24 1013.6 1013.6 0.0
19/02:00am 14.2 8.7 11.9 86 1.2 WNW 32 37 17 20 1014.0 1014.0 0.0
19/01:30am 14.2 7.9 11.2 82 1.6 W 35 39 19 21 1014.3 1014.3 0.0
19/01:00am 14.6 8.2 10.8 78 2.0 W 35 41 19 22 1014.5 1014.5 0.0
19/12:30am 14.6 8.1 10.2 75 2.3 W 35 39 19 21 1014.6 1014.6 0.0
19/12:00am 14.3 7.8 10.3 77 2.1 W 35 41 19 22 1014.6 1014.6 0.0
 
Date/Time
EST
Temp
°C
App
Temp
°C
Dew
Point
°C
Rel
Hum
%
Delta-T
°C
Wind Press
QNH
hPa
Press
MSL
hPa
Rain since
9am
mm
Dir  Spd
km/h
Gust
km/h
Spd
kts
Gust
kts
18/11:30pm 14.4 6.7 10.2 76 2.2 W 41 50 22 27 1014.9 1014.9 0.0
18/11:00pm 14.7 7.9 10.5 76 2.2 W 37 44 20 24 1015.1 1015.1 0.0
18/10:30pm 14.6 6.4 9.6 72 2.6 W 43 52 23 28 1015.5 1015.5 0.0
18/10:00pm 14.6 5.0 9.6 72 2.6 W 50 59 27 32 1015.7 1015.7 0.0
18/09:30pm 14.4 5.6 9.6 73 2.5 W 46 59 25 32 1015.6 1015.6 0.0
18/09:00pm 14.3 5.9 9.7 74 2.4 WNW 44 50 24 27 1015.5 1015.5 0.0
18/08:30pm 14.6 6.0 10.2 75 2.3 W 46 54 25 29 1015.2 1015.2 0.0
18/08:00pm 14.7 6.5 10.3 75 2.3 W 44 56 24 30 1015.4 1015.4 0.0
18/07:30pm 15.0 7.1 11.4 79 1.9 W 44 52 24 28 1015.5 1015.5 0.0
18/07:00pm 15.0 7.4 11.8 81 1.7 WNW 43 50 23 27 1015.4 1015.4 0.0
18/06:30pm 15.5 8.5 12.6 83 1.6 WNW 41 46 22 25 1015.3 1015.3 0.0
18/06:00pm 15.8 9.0 12.0 78 2.1 WNW 39 44 21 24 1015.0 1015.0 0.0
18/05:30pm 16.0 8.8 11.8 76 2.3 WNW 41 46 22 25 1014.7 1014.7 0.0
18/05:00pm 16.0 9.6 12.0 77 2.2 WNW 37 43 20 23 1014.7 1014.7 0.0
18/04:30pm 16.2 9.4 11.8 75 2.4 WNW 39 44 21 24 1014.7 1014.7 0.0
18/04:00pm 16.4 9.4 11.1 71 2.8 WNW 39 46 21 25 1014.6 1014.6 0.0
18/03:30pm 16.9 9.3 11.8 72 2.8 WNW 43 48 23 26 1014.7 1014.7 0.0
18/03:00pm 16.9 9.9 12.4 75 2.5 WNW 41 48 22 26 1014.8 1014.8 0.0
18/02:30pm 16.9 10.3 12.6 76 2.4 WNW 39 44 21 24 1014.8 1014.8 0.0
18/02:00pm 16.9 10.3 12.6 76 2.4 WNW 39 44 21 24 1015.1 1015.1 0.0
18/01:30pm 16.7 10.5 12.5 76 2.3 WNW 37 43 20 23 1015.6 1015.6 0.0
18/01:00pm 16.5 9.6 12.7 78 2.1 WNW 41 48 22 26 1015.9 1015.9 0.0
18/12:30pm 16.4 10.1 12.2 76 2.3 WNW 37 43 20 23 1016.4 1016.4 0.0
18/12:00pm 16.5 10.6 12.5 77 2.2 WNW 35 41 19 22 1016.8 1016.8 0.0
18/11:30am 16.1 10.6 12.3 78 2.1 WNW 33 39 18 21 1017.2 1017.2 0.0
18/11:00am 15.3 9.1 11.5 78 2.0 WNW 35 43 19 23 1017.5 1017.5 0.0
18/10:30am 14.9 8.6 11.1 78 2.0 W 35 39 19 21 1017.7 1017.7 0.0
18/10:00am 14.7 8.0 10.9 78 2.0 W 37 43 20 23 1017.8 1017.8 0.0
18/09:30am 14.6 7.9 11.0 79 1.9 W 37 44 20 24 1017.9 1017.9 0.0
18/09:00am 14.3 7.5 10.7 79 1.9 W 37 44 20 24 1018.1 1018.1 0.0
18/08:30am 14.2 7.5 11.0 81 1.7 W 37 44 20 24 1018.0 1018.0 0.0
18/08:00am 14.2 7.5 11.0 81 1.7 W 37 44 20 24 1017.9 1017.9 0.0
18/07:30am 14.1 8.1 10.9 81 1.7 W 33 41 18 22 1017.7 1017.7 0.0
18/07:00am 14.0 7.9 10.6 80 1.8 W 33 41 18 22 1017.4 1017.4 0.0
18/06:30am 13.9 7.9 10.7 81 1.7 W 33 41 18 22 1017.5 1017.5 0.0
18/06:00am 14.0 7.9 10.6 80 1.8 W 33 41 18 22 1017.7 1017.7 0.0
18/05:30am 13.8 7.3 10.2 79 1.9 W 35 43 19 23 1017.6 1017.6 0.0
18/05:00am 14.0 7.6 10.6 80 1.8 W 35 39 19 21 1017.6 1017.6 0.0
18/04:30am 13.9 7.3 10.1 78 2.0 W 35 44 19 24 1017.6 1017.6 0.0
18/04:00am 14.2 7.8 10.6 79 1.9 W 35 43 19 23 1017.4 1017.4 0.0
18/03:30am 14.0 7.5 10.4 79 1.9 W 35 43 19 23 1017.4 1017.4 0.0
18/03:00am 14.1 7.3 10.7 80 1.8 W 37 43 20 23 1017.5 1017.5 0.0
18/02:30am 14.2 8.0 11.4 83 1.5 W 35 41 19 22 1017.7 1017.7 0.0
18/02:00am 14.4 8.0 12.1 86 1.2 W 37 43 20 23 1018.1 1018.1 0.0
18/01:30am 14.6 8.7 12.5 87 1.1 W 35 41 19 22 1018.5 1018.5 0.0
18/01:00am 14.6 9.0 12.1 85 1.4 W 33 39 18 21 1018.6 1018.6 0.0
18/12:30am 14.5 9.0 11.8 84 1.5 W 32 37 17 20 1018.6 1018.6 0.0
18/12:00am 14.5 8.4 11.7 83 1.5 WNW 35 41 19 22 1018.6 1018.6 0.0
 
Date/Time
EST
Temp
°C
App
Temp
°C
Dew
Point
°C
Rel
Hum
%
Delta-T
°C
Wind Press
QNH
hPa
Press
MSL
hPa
Rain since
9am
mm
Dir  Spd
km/h
Gust
km/h
Spd
kts
Gust
kts
17/11:30pm 14.5 8.6 11.3 81 1.7 WNW 33 39 18 21 1018.9 1018.9 0.0
17/11:00pm 14.7 8.8 11.1 79 1.9 W 33 41 18 22 1019.2 1019.2 0.0
17/10:30pm 14.8 8.1 11.0 78 2.0 W 37 46 20 25 1019.2 1019.2 0.0
17/10:00pm 15.0 7.8 11.8 81 1.7 W 41 46 22 25 1019.2 1019.2 0.0
17/09:30pm 14.9 7.3 11.9 82 1.6 W 43 50 23 27 1019.2 1019.2 0.0
17/09:00pm 15.2 8.6 12.5 84 1.5 W 39 46 21 25 1019.0 1019.0 0.0
17/08:30pm 15.2 8.2 12.5 84 1.5 W 41 46 22 25 1019.0 1019.0 0.0
17/08:00pm 15.4 8.4 12.5 83 1.6 W 41 46 22 25 1019.1 1019.1 0.0
17/07:30pm 15.4 8.7 12.2 81 1.7 W 39 46 21 25 1019.0 1019.0 0.0
17/07:00pm 15.7 9.4 12.3 80 1.9 WNW 37 44 20 24 1018.9 1018.9 0.0
17/06:30pm 15.9 9.7 12.5 80 1.9 W 37 44 20 24 1018.7 1018.7 0.0
17/06:00pm 16.0 10.5 12.6 80 1.9 WNW 33 39 18 21 1018.6 1018.6 0.0
17/05:30pm 16.3 10.1 12.8 80 1.9 WNW 37 43 20 23 1018.3 1018.3 0.0
17/05:00pm 16.1 9.7 13.2 83 1.6 WNW 39 46 21 25 1018.2 1018.2 0.0
17/04:30pm 16.4 10.0 13.3 82 1.7 WNW 39 48 21 26 1018.1 1018.1 0.0
17/04:00pm 16.3 9.4 12.8 80 1.9 WNW 41 46 22 25 1018.1 1018.1 0.0
17/03:30pm 16.5 9.2 12.7 78 2.1 WNW 43 50 23 27 1018.2 1018.2 0.0
17/03:00pm 16.2 9.2 12.6 79 2.0 NW 41 50 22 27 1018.4 1018.4 0.0
17/02:30pm 17.0 10.4 12.7 76 2.4 NW 39 46 21 25 1018.5 1018.5 0.0
17/02:00pm 16.4 10.5 12.4 77 2.2 NW 35 43 19 23 1018.5 1018.5 0.0
17/01:30pm 16.6 10.3 12.2 75 2.4 NW 37 43 20 23 1018.7 1018.7 0.0
17/01:00pm 16.3 9.1 11.9 75 2.4 WNW 41 46 22 25 1018.9 1018.9 0.0
17/12:30pm 15.9 9.0 11.7 76 2.3 WNW 39 46 21 25 1019.3 1019.3 0.0
17/12:00pm 15.6 8.3 11.4 76 2.2 WNW 41 46 22 25 1019.7 1019.7 0.0
17/11:30am 15.5 8.1 11.3 76 2.3 WNW 41 46 22 25 1020.1 1020.1 0.0
17/11:00am 15.2 8.1 11.0 76 2.2 WNW 39 46 21 25 1020.2 1020.2 0.0
17/10:30am 15.1 7.4 10.3 73 2.5 W 41 50 22 27 1020.3 1020.3 0.0
17/10:00am 14.9 6.9 10.3 74 2.4 W 43 48 23 26 1020.3 1020.3 0.0
17/09:30am 14.7 7.7 9.9 73 2.5 W 37 43 20 23 1020.5 1020.5 0.0
17/09:00am 14.5 7.1 9.9 74 2.4 W 39 44 21 24 1020.8 1020.8 0.0
17/08:30am 14.2 6.7 9.6 74 2.4 W 39 46 21 25 1021.0 1021.0 0.0
17/08:00am 14.3 7.5 9.3 72 2.5 W 35 43 19 23 1020.8 1020.8 0.0
17/07:30am 14.0 6.0 9.0 72 2.5 W 41 46 22 25 1020.6 1020.6 0.0
17/07:00am 13.8 6.1 8.6 71 2.6 W 39 46 21 25 1020.3 1020.3 0.0
17/06:30am 14.0 5.5 8.6 70 2.7 W 43 52 23 28 1020.2 1020.2 0.0
17/06:00am 14.0 5.3 8.6 70 2.7 W 44 52 24 28 1020.1 1020.1 0.0
17/05:30am 14.2 5.7 9.2 72 2.5 W 44 54 24 29 1019.9 1019.9 0.0
17/05:00am 13.6 5.8 8.4 71 2.6 W 39 46 21 25 1019.9 1019.9 0.0
17/04:30am 13.5 5.2 7.9 69 2.8 W 41 50 22 27 1019.8 1019.8 0.0
17/04:00am 13.4 4.1 7.6 68 2.8 W 46 57 25 31 1019.7 1019.7 0.0
17/03:30am 13.4 4.0 7.0 65 3.1 W 46 56 25 30 1019.8 1019.8 0.0
17/03:00am 13.7 4.7 9.0 73 2.4 W 46 56 25 30 1019.7 1019.7 0.0
17/02:30am 13.6 5.1 8.7 72 2.5 W 43 52 23 28 1020.0 1020.0 0.0
17/02:00am 13.2 4.6 8.1 71 2.5 W 43 50 23 27 1020.2 1020.2 0.0
17/01:30am 13.5 4.4 8.4 71 2.5 W 46 57 25 31 1020.3 1020.3 0.0
17/01:00am 13.4 4.8 8.3 71 2.5 W 43 52 23 28 1020.3 1020.3 0.0
17/12:30am 13.2 4.5 7.6 69 2.7 W 43 52 23 28 1020.4 1020.4 0.0
17/12:00am 13.1 4.4 7.5 69 2.7 W 43 50 23 27 1020.5 1020.5 0.0
 
Date/Time
EST
Temp
°C
App
Temp
°C
Dew
Point
°C
Rel
Hum
%
Delta-T
°C
Wind Press
QNH
hPa
Press
MSL
hPa
Rain since
9am
mm
Dir  Spd
km/h
Gust
km/h
Spd
kts
Gust
kts
16/11:30pm 12.9 4.1 7.4 69 2.7 W 43 54 23 29 1020.8 1020.8 0.0
16/11:00pm 12.6 4.4 6.6 67 2.9 WSW 39 46 21 25 1020.9 1020.9 0.0
16/10:30pm 12.8 4.0 7.3 69 2.7 WSW 43 52 23 28 1021.2 1021.2 0.0
16/10:00pm 12.7 4.7 7.6 71 2.5 WSW 39 52 21 28 1021.2 1021.2 0.0
16/09:30pm 12.4 3.5 6.9 69 2.6 W 43 52 23 28 1021.3 1021.3 0.0
16/09:00pm 12.2 3.3 6.7 69 2.6 W 43 50 23 27 1021.3 1021.3 0.0
16/08:30pm 12.6 4.7 7.7 72 2.4 W 39 48 21 26 1021.2 1021.2 0.0
16/08:00pm 12.8 5.1 7.3 69 2.7 W 37 46 20 25 1021.1 1021.1 0.0
16/07:30pm 12.8 4.3 6.8 67 2.9 W 41 48 22 26 1021.3 1021.3 0.0
16/07:00pm 12.8 5.4 6.8 67 2.9 W 35 41 19 22 1021.0 1021.0 0.0
16/06:30pm 13.2 5.2 7.6 69 2.7 W 39 46 21 25 1020.7 1020.7 0.0
16/06:00pm 13.6 6.2 8.2 70 2.7 W 37 44 20 24 1020.3 1020.3 0.0
16/05:30pm 13.9 6.8 7.9 67 3.0 W 35 43 19 23 1020.0 1020.0 0.0
16/05:00pm 14.1 6.7 6.7 61 3.6 W 35 43 19 23 1020.0 1020.0 0.0
16/04:30pm 14.3 6.4 8.0 66 3.1 W 39 44 21 24 1019.8 1019.8 0.0
16/04:00pm 14.5 6.8 8.7 68 2.9 W 39 46 21 25 1019.9 1019.9 0.0
16/03:30pm 14.5 7.3 7.8 64 3.3 W 35 41 19 22 1019.8 1019.8 0.0
16/03:00pm 14.7 8.2 8.0 64 3.3 WNW 32 35 17 19 1019.9 1019.9 0.0
16/02:30pm 15.1 10.7 7.2 59 3.9 WNW 20 28 11 15 1020.1 1020.1 0.0
16/02:00pm 14.5 9.9 6.6 59 3.8 W 20 24 11 13 1020.2 1020.2 0.0
16/01:30pm 14.0 8.5 6.1 59 3.8 W 24 28 13 15 1020.3 1020.3 0.0
16/01:00pm 13.8 9.3 6.2 60 3.6 W 19 24 10 13 1020.5 1020.5 0.0
16/12:30pm 13.6 9.0 6.5 62 3.4 WNW 20 26 11 14 1020.8 1020.8 0.0
16/12:00pm 13.6 8.9 6.0 60 3.6 WNW 20 28 11 15 1021.1 1021.1 0.0
16/11:30am 13.1 8.3 5.5 60 3.6 W 20 26 11 14 1021.2 1021.2 0.0
16/11:00am 12.6 7.6 4.8 59 3.6 W 20 26 11 14 1021.1 1021.1 0.0
16/10:30am 12.2 7.7 4.4 59 3.5 W 17 22 9 12 1021.0 1021.0 0.0

Other formats

Comma delimited format used in spreadsheet applications
http://www.bom.gov.au/fwo/IDT60801/IDT60801.95964.axf

JavaScript Object Notation format (JSON) in row-major order
http://www.bom.gov.au/fwo/IDT60801/IDT60801.95964.json

Data quality

Most of these data are generated automatically and are frequently updated. Quality checks on data are not normally performed. It is possible for incorrect values to appear. Refer to information at About Latest Weather Observations and please check the disclaimer before using these data.